Strona główna
METAR-TAF:

METAR-TAF

Lotnisko :

Lotnisko Mönchengladbach

Mönchengladbach, Niemcy

Szerokość geograficzna: 51-13-49N, Długość geograficzna: 006-30-16E, wysokość: 38 m

Aktualna obserwacja pogody

Raport powstał 32 minut temu, godzina 21:50 UTC
Wiatr 2 kt z kierunków zmiennych
Temperatura 14°C
Wilgotność 67%
Ciśnienie 1026 hPa
Widzialność 10 km lub więcej

METAR: EDLN 062150Z AUTO VRB02KT 9999 // BKN093/// 14/08 Q1026

czas: 00:22 (22:22 UTC)

Prognoza

Raport powstał 5 godziny i 22 minut temu, godzina 17:00 UTC
Prognoza ważna od 06 godzina 18 UTC do 07 godzina 03 UTC
Wiatr 5 kt od zachód
Widzialność 10 km lub więcej
Brak chmur poniżej 1500 m i brak chmur cumulonimbus
Stopniowe zmiany
od 06 godzina 22 UTC do 07 godzina 01 UTC
Wiatr 3 kt od południowo-południowy zachód

TAF: EDLN 061700Z 0618/0703 26005KT CAVOK BECMG 0622/0701 20003KT

Obserwacja i prognoza pogody dla ponad 4000 lotnisk (raport METAR i TAF).

Dostępne stacje oznaczono żółtymi i czerwonymi punktami na mapie.

Najedź kursorem aby zobaczyć nazwę stacji.

Kliknij aby zobaczyć obserwacje i prognozy pogody.

Aby zmienić mapę: kliknij na zielony przycisk z czarnym krzyżykiem, aby powiększyć; na zielony przycisk z myślnikiem, aby pomniejszyć; na zielone strzałki, aby przejść do map sąsiednich.


METAR-TAF: